sensor_id;sensor_type;location;lat;lon;timestamp;P1;durP1;ratioP1;P2;durP2;ratioP2
19671;SDS011;9983;51.114;13.788;2023-03-14T00:02:38;1.27;;;1.17;;
19671;SDS011;9983;51.114;13.788;2023-03-14T00:07:39;2.38;;;1.40;;
19671;SDS011;9983;51.114;13.788;2023-03-14T00:12:40;1.50;;;1.30;;
19671;SDS011;9983;51.114;13.788;2023-03-14T00:17:42;1.60;;;1.50;;
19671;SDS011;9983;51.114;13.788;2023-03-14T00:22:43;1.50;;;1.40;;
19671;SDS011;9983;51.114;13.788;2023-03-14T00:27:43;2.45;;;1.63;;
19671;SDS011;9983;51.114;13.788;2023-03-14T00:32:43;3.50;;;1.55;;
19671;SDS011;9983;51.114;13.788;2023-03-14T00:37:43;2.10;;;2.00;;
19671;SDS011;9983;51.114;13.788;2023-03-14T00:42:44;2.28;;;2.08;;
19671;SDS011;9983;51.114;13.788;2023-03-14T00:47:44;2.17;;;2.08;;
19671;SDS011;9983;51.114;13.788;2023-03-14T00:52:45;2.78;;;2.55;;
19671;SDS011;9983;51.114;13.788;2023-03-14T00:57:48;3.03;;;2.80;;
19671;SDS011;9983;51.114;13.788;2023-03-14T01:02:48;4.55;;;3.10;;
19671;SDS011;9983;51.114;13.788;2023-03-14T01:07:49;2.75;;;2.55;;
19671;SDS011;9983;51.114;13.788;2023-03-14T01:12:49;4.07;;;2.40;;
19671;SDS011;9983;51.114;13.788;2023-03-14T01:17:50;2.55;;;2.35;;
19671;SDS011;9983;51.114;13.788;2023-03-14T01:22:50;2.88;;;2.67;;
19671;SDS011;9983;51.114;13.788;2023-03-14T01:27:50;3.13;;;2.80;;
19671;SDS011;9983;51.114;13.788;2023-03-14T01:32:50;3.10;;;2.90;;
19671;SDS011;9983;51.114;13.788;2023-03-14T01:37:51;2.92;;;2.72;;
19671;SDS011;9983;51.114;13.788;2023-03-14T01:42:57;2.90;;;2.70;;
19671;SDS011;9983;51.114;13.788;2023-03-14T01:48:05;2.90;;;2.70;;
19671;SDS011;9983;51.114;13.788;2023-03-14T01:53:05;3.15;;;2.83;;
19671;SDS011;9983;51.114;13.788;2023-03-14T01:58:05;4.03;;;3.08;;
19671;SDS011;9983;51.114;13.788;2023-03-14T02:03:07;3.20;;;2.75;;
19671;SDS011;9983;51.114;13.788;2023-03-14T02:08:17;3.05;;;2.78;;
19671;SDS011;9983;51.114;13.788;2023-03-14T02:13:19;3.03;;;2.83;;
19671;SDS011;9983;51.114;13.788;2023-03-14T02:18:21;3.15;;;2.85;;
19671;SDS011;9983;51.114;13.788;2023-03-14T02:23:32;2.50;;;2.35;;
19671;SDS011;9983;51.114;13.788;2023-03-14T02:28:43;3.30;;;3.00;;
19671;SDS011;9983;51.114;13.788;2023-03-14T02:33:44;2.35;;;2.17;;
19671;SDS011;9983;51.114;13.788;2023-03-14T02:38:55;2.45;;;2.25;;
19671;SDS011;9983;51.114;13.788;2023-03-14T02:44:11;2.35;;;2.25;;
19671;SDS011;9983;51.114;13.788;2023-03-14T02:49:12;1.85;;;1.75;;
19671;SDS011;9983;51.114;13.788;2023-03-14T02:54:14;2.58;;;1.70;;
19671;SDS011;9983;51.114;13.788;2023-03-14T02:59:15;2.97;;;1.50;;
19671;SDS011;9983;51.114;13.788;2023-03-14T03:04:16;1.40;;;1.30;;
19671;SDS011;9983;51.114;13.788;2023-03-14T03:09:16;2.05;;;1.60;;
19671;SDS011;9983;51.114;13.788;2023-03-14T03:14:16;1.70;;;1.60;;
19671;SDS011;9983;51.114;13.788;2023-03-14T03:19:16;1.10;;;1.08;;
19671;SDS011;9983;51.114;13.788;2023-03-14T03:24:17;1.05;;;0.98;;
19671;SDS011;9983;51.114;13.788;2023-03-14T03:29:17;0.80;;;0.80;;
19671;SDS011;9983;51.114;13.788;2023-03-14T03:34:18;1.30;;;1.20;;
19671;SDS011;9983;51.114;13.788;2023-03-14T03:39:19;0.75;;;0.43;;
19671;SDS011;9983;51.114;13.788;2023-03-14T03:44:19;0.52;;;0.52;;
19671;SDS011;9983;51.114;13.788;2023-03-14T03:49:19;0.30;;;0.30;;
19671;SDS011;9983;51.114;13.788;2023-03-14T03:54:20;0.30;;;0.30;;
19671;SDS011;9983;51.114;13.788;2023-03-14T03:59:20;0.22;;;0.22;;
19671;SDS011;9983;51.114;13.788;2023-03-14T04:04:20;0.45;;;0.45;;
19671;SDS011;9983;51.114;13.788;2023-03-14T04:09:21;0.40;;;0.40;;
19671;SDS011;9983;51.114;13.788;2023-03-14T04:14:21;0.68;;;0.47;;
19671;SDS011;9983;51.114;13.788;2023-03-14T04:19:22;0.45;;;0.45;;
19671;SDS011;9983;51.114;13.788;2023-03-14T04:24:22;0.40;;;0.28;;
19671;SDS011;9983;51.114;13.788;2023-03-14T04:29:22;0.45;;;0.38;;
19671;SDS011;9983;51.114;13.788;2023-03-14T04:34:22;1.30;;;0.50;;
19671;SDS011;9983;51.114;13.788;2023-03-14T04:39:23;0.60;;;0.30;;
19671;SDS011;9983;51.114;13.788;2023-03-14T04:44:23;0.73;;;0.33;;
19671;SDS011;9983;51.114;13.788;2023-03-14T04:49:23;1.10;;;0.47;;
19671;SDS011;9983;51.114;13.788;2023-03-14T04:54:24;0.40;;;0.40;;
19671;SDS011;9983;51.114;13.788;2023-03-14T04:59:24;1.42;;;0.32;;
19671;SDS011;9983;51.114;13.788;2023-03-14T05:04:24;2.42;;;0.60;;
19671;SDS011;9983;51.114;13.788;2023-03-14T05:09:25;0.68;;;0.60;;
19671;SDS011;9983;51.114;13.788;2023-03-14T05:14:25;1.50;;;0.88;;
19671;SDS011;9983;51.114;13.788;2023-03-14T05:19:25;1.60;;;0.68;;
19671;SDS011;9983;51.114;13.788;2023-03-14T05:24:26;1.60;;;0.63;;
19671;SDS011;9983;51.114;13.788;2023-03-14T05:29:26;2.50;;;0.75;;
19671;SDS011;9983;51.114;13.788;2023-03-14T05:34:26;4.07;;;1.35;;
19671;SDS011;9983;51.114;13.788;2023-03-14T05:39:26;3.38;;;1.30;;
19671;SDS011;9983;51.114;13.788;2023-03-14T05:44:27;3.35;;;1.02;;
19671;SDS011;9983;51.114;13.788;2023-03-14T05:49:27;3.53;;;1.10;;
19671;SDS011;9983;51.114;13.788;2023-03-14T05:54:27;1.42;;;1.08;;
19671;SDS011;9983;51.114;13.788;2023-03-14T05:59:27;2.25;;;1.25;;
19671;SDS011;9983;51.114;13.788;2023-03-14T06:04:28;1.67;;;0.98;;
19671;SDS011;9983;51.114;13.788;2023-03-14T06:09:28;4.55;;;1.17;;
19671;SDS011;9983;51.114;13.788;2023-03-14T06:14:28;2.58;;;1.20;;
19671;SDS011;9983;51.114;13.788;2023-03-14T06:19:29;4.25;;;1.48;;
19671;SDS011;9983;51.114;13.788;2023-03-14T06:24:29;2.55;;;1.17;;
19671;SDS011;9983;51.114;13.788;2023-03-14T06:29:29;2.42;;;1.40;;
19671;SDS011;9983;51.114;13.788;2023-03-14T06:34:30;2.42;;;1.00;;
19671;SDS011;9983;51.114;13.788;2023-03-14T06:39:31;2.42;;;1.02;;
19671;SDS011;9983;51.114;13.788;2023-03-14T06:44:31;3.63;;;1.52;;
19671;SDS011;9983;51.114;13.788;2023-03-14T06:49:31;3.53;;;1.20;;
19671;SDS011;9983;51.114;13.788;2023-03-14T06:54:32;3.28;;;1.08;;
19671;SDS011;9983;51.114;13.788;2023-03-14T06:59:32;3.38;;;1.25;;
19671;SDS011;9983;51.114;13.788;2023-03-14T07:04:32;3.50;;;1.38;;
19671;SDS011;9983;51.114;13.788;2023-03-14T07:09:33;2.72;;;1.60;;
19671;SDS011;9983;51.114;13.788;2023-03-14T07:14:33;3.58;;;1.67;;
19671;SDS011;9983;51.114;13.788;2023-03-14T07:19:34;2.85;;;1.05;;
19671;SDS011;9983;51.114;13.788;2023-03-14T07:24:34;2.63;;;1.17;;
19671;SDS011;9983;51.114;13.788;2023-03-14T07:29:34;6.35;;;1.50;;
19671;SDS011;9983;51.114;13.788;2023-03-14T07:34:34;2.05;;;1.17;;
19671;SDS011;9983;51.114;13.788;2023-03-14T07:39:35;1.98;;;0.93;;
19671;SDS011;9983;51.114;13.788;2023-03-14T07:44:35;1.38;;;1.27;;
19671;SDS011;9983;51.114;13.788;2023-03-14T07:49:35;2.25;;;1.10;;
19671;SDS011;9983;51.114;13.788;2023-03-14T07:54:36;0.80;;;0.63;;
19671;SDS011;9983;51.114;13.788;2023-03-14T07:59:36;3.08;;;1.30;;
19671;SDS011;9983;51.114;13.788;2023-03-14T08:04:36;2.13;;;0.82;;
19671;SDS011;9983;51.114;13.788;2023-03-14T08:09:37;3.60;;;1.10;;
19671;SDS011;9983;51.114;13.788;2023-03-14T08:14:37;3.40;;;1.15;;
19671;SDS011;9983;51.114;13.788;2023-03-14T08:19:37;3.88;;;1.58;;
19671;SDS011;9983;51.114;13.788;2023-03-14T08:24:37;3.33;;;1.30;;
19671;SDS011;9983;51.114;13.788;2023-03-14T08:29:38;2.22;;;1.00;;
19671;SDS011;9983;51.114;13.788;2023-03-14T08:34:38;4.90;;;1.38;;
19671;SDS011;9983;51.114;13.788;2023-03-14T08:39:38;3.08;;;0.95;;
19671;SDS011;9983;51.114;13.788;2023-03-14T08:44:39;1.40;;;1.05;;
19671;SDS011;9983;51.114;13.788;2023-03-14T08:49:39;1.27;;;0.80;;
19671;SDS011;9983;51.114;13.788;2023-03-14T08:54:40;1.33;;;0.60;;
19671;SDS011;9983;51.114;13.788;2023-03-14T08:59:40;1.50;;;0.60;;
19671;SDS011;9983;51.114;13.788;2023-03-14T09:04:40;1.60;;;0.88;;
19671;SDS011;9983;51.114;13.788;2023-03-14T09:09:40;0.60;;;0.52;;
19671;SDS011;9983;51.114;13.788;2023-03-14T09:14:41;0.73;;;0.40;;
19671;SDS011;9983;51.114;13.788;2023-03-14T09:19:41;1.13;;;0.73;;
19671;SDS011;9983;51.114;13.788;2023-03-14T09:24:41;0.85;;;0.60;;
19671;SDS011;9983;51.114;13.788;2023-03-14T09:29:41;1.60;;;0.52;;
19671;SDS011;9983;51.114;13.788;2023-03-14T09:34:42;1.67;;;0.80;;
19671;SDS011;9983;51.114;13.788;2023-03-14T09:39:42;2.38;;;0.82;;
19671;SDS011;9983;51.114;13.788;2023-03-14T09:45:02;1.60;;;1.08;;
19671;SDS011;9983;51.114;13.788;2023-03-14T09:50:12;2.75;;;1.05;;
19671;SDS011;9983;51.114;13.788;2023-03-14T09:55:16;0.60;;;0.60;;
19671;SDS011;9983;51.114;13.788;2023-03-14T10:00:19;1.17;;;0.80;;
19671;SDS011;9983;51.114;13.788;2023-03-14T10:05:23;2.63;;;0.77;;
19671;SDS011;9983;51.114;13.788;2023-03-14T10:10:26;2.50;;;0.75;;
19671;SDS011;9983;51.114;13.788;2023-03-14T10:15:30;1.85;;;0.60;;
19671;SDS011;9983;51.114;13.788;2023-03-14T10:20:39;5.38;;;1.17;;
19671;SDS011;9983;51.114;13.788;2023-03-14T10:25:43;2.13;;;0.80;;
19671;SDS011;9983;51.114;13.788;2023-03-14T10:30:45;0.63;;;0.60;;
19671;SDS011;9983;51.114;13.788;2023-03-14T10:36:14;1.00;;;0.82;;
19671;SDS011;9983;51.114;13.788;2023-03-14T10:41:30;3.17;;;0.90;;
19671;SDS011;9983;51.114;13.788;2023-03-14T10:46:32;0.75;;;0.40;;
19671;SDS011;9983;51.114;13.788;2023-03-14T10:51:33;0.90;;;0.60;;
19671;SDS011;9983;51.114;13.788;2023-03-14T10:56:34;0.80;;;0.70;;
19671;SDS011;9983;51.114;13.788;2023-03-14T11:01:55;0.55;;;0.55;;
19671;SDS011;9983;51.114;13.788;2023-03-14T11:18:00;1.33;;;0.60;;
19671;SDS011;9983;51.114;13.788;2023-03-14T11:28:38;2.17;;;0.80;;
19671;SDS011;9983;51.114;13.788;2023-03-14T11:39:18;0.77;;;0.52;;
19671;SDS011;9983;51.114;13.788;2023-03-14T11:44:20;1.40;;;0.70;;
19671;SDS011;9983;51.114;13.788;2023-03-14T11:49:38;1.52;;;0.55;;
19671;SDS011;9983;51.114;13.788;2023-03-14T11:59:59;0.70;;;0.57;;
19671;SDS011;9983;51.114;13.788;2023-03-14T12:10:43;2.38;;;0.73;;
19671;SDS011;9983;51.114;13.788;2023-03-14T12:15:54;0.47;;;0.35;;
19671;SDS011;9983;51.114;13.788;2023-03-14T12:21:02;1.15;;;0.70;;
19671;SDS011;9983;51.114;13.788;2023-03-14T12:36:47;0.60;;;0.60;;
19671;SDS011;9983;51.114;13.788;2023-03-14T12:42:02;2.38;;;0.73;;
19671;SDS011;9983;51.114;13.788;2023-03-14T12:52:34;0.90;;;0.68;;
19671;SDS011;9983;51.114;13.788;2023-03-14T12:57:45;1.95;;;0.20;;
19671;SDS011;9983;51.114;13.788;2023-03-14T13:03:12;1.08;;;0.28;;
19671;SDS011;9983;51.114;13.788;2023-03-14T13:08:31;0.20;;;0.20;;
19671;SDS011;9983;51.114;13.788;2023-03-14T13:13:44;0.20;;;0.20;;
19671;SDS011;9983;51.114;13.788;2023-03-14T13:19:00;1.10;;;0.20;;
19671;SDS011;9983;51.114;13.788;2023-03-14T13:24:05;0.17;;;0.17;;
19671;SDS011;9983;51.114;13.788;2023-03-14T13:29:22;0.20;;;0.20;;
19671;SDS011;9983;51.114;13.788;2023-03-14T13:34:31;0.22;;;0.17;;
19671;SDS011;9983;51.114;13.788;2023-03-14T13:39:32;0.13;;;0.13;;
19671;SDS011;9983;51.114;13.788;2023-03-14T13:44:36;0.55;;;0.20;;
19671;SDS011;9983;51.114;13.788;2023-03-14T13:49:39;0.20;;;0.20;;
19671;SDS011;9983;51.114;13.788;2023-03-14T13:54:39;0.30;;;0.13;;
19671;SDS011;9983;51.114;13.788;2023-03-14T13:59:40;0.20;;;0.17;;
19671;SDS011;9983;51.114;13.788;2023-03-14T14:04:40;0.70;;;0.40;;
19671;SDS011;9983;51.114;13.788;2023-03-14T14:09:41;0.40;;;0.20;;
19671;SDS011;9983;51.114;13.788;2023-03-14T14:14:48;0.43;;;0.30;;
19671;SDS011;9983;51.114;13.788;2023-03-14T14:19:59;0.90;;;0.17;;
19671;SDS011;9983;51.114;13.788;2023-03-14T14:25:03;1.30;;;0.50;;
19671;SDS011;9983;51.114;13.788;2023-03-14T14:35:23;0.35;;;0.35;;
19671;SDS011;9983;51.114;13.788;2023-03-14T14:40:34;0.60;;;0.30;;
19671;SDS011;9983;51.114;13.788;2023-03-14T14:45:43;0.15;;;0.15;;
19671;SDS011;9983;51.114;13.788;2023-03-14T14:55:45;0.30;;;0.30;;
19671;SDS011;9983;51.114;13.788;2023-03-14T15:00:50;0.15;;;0.15;;
19671;SDS011;9983;51.114;13.788;2023-03-14T15:05:56;0.20;;;0.20;;
19671;SDS011;9983;51.114;13.788;2023-03-14T15:10:57;0.32;;;0.28;;
19671;SDS011;9983;51.114;13.788;2023-03-14T15:15:58;0.57;;;0.38;;
19671;SDS011;9983;51.114;13.788;2023-03-14T15:20:58;0.40;;;0.40;;
19671;SDS011;9983;51.114;13.788;2023-03-14T15:25:58;0.30;;;0.30;;
19671;SDS011;9983;51.114;13.788;2023-03-14T15:30:58;0.40;;;0.40;;
19671;SDS011;9983;51.114;13.788;2023-03-14T15:35:59;0.17;;;0.17;;
19671;SDS011;9983;51.114;13.788;2023-03-14T15:41:00;0.35;;;0.35;;
19671;SDS011;9983;51.114;13.788;2023-03-14T15:46:00;0.20;;;0.20;;
19671;SDS011;9983;51.114;13.788;2023-03-14T15:51:01;0.40;;;0.40;;
19671;SDS011;9983;51.114;13.788;2023-03-14T15:56:01;0.30;;;0.30;;
19671;SDS011;9983;51.114;13.788;2023-03-14T16:01:01;0.80;;;0.40;;
19671;SDS011;9983;51.114;13.788;2023-03-14T16:06:02;1.33;;;0.57;;
19671;SDS011;9983;51.114;13.788;2023-03-14T16:11:03;0.50;;;0.50;;
19671;SDS011;9983;51.114;13.788;2023-03-14T16:16:05;0.73;;;0.40;;
19671;SDS011;9983;51.114;13.788;2023-03-14T16:21:08;1.58;;;0.77;;
19671;SDS011;9983;51.114;13.788;2023-03-14T16:26:12;0.20;;;0.20;;
19671;SDS011;9983;51.114;13.788;2023-03-14T16:31:17;0.10;;;0.10;;
19671;SDS011;9983;51.114;13.788;2023-03-14T16:36:20;0.30;;;0.30;;
19671;SDS011;9983;51.114;13.788;2023-03-14T16:41:20;0.90;;;0.15;;
19671;SDS011;9983;51.114;13.788;2023-03-14T16:46:21;0.60;;;0.40;;
19671;SDS011;9983;51.114;13.788;2023-03-14T16:51:24;0.28;;;0.28;;
19671;SDS011;9983;51.114;13.788;2023-03-14T16:56:24;0.63;;;0.50;;
19671;SDS011;9983;51.114;13.788;2023-03-14T17:01:24;1.00;;;0.55;;
19671;SDS011;9983;51.114;13.788;2023-03-14T17:06:26;0.40;;;0.40;;
19671;SDS011;9983;51.114;13.788;2023-03-14T17:11:27;0.57;;;0.40;;
19671;SDS011;9983;51.114;13.788;2023-03-14T17:16:28;0.20;;;0.20;;
19671;SDS011;9983;51.114;13.788;2023-03-14T17:21:29;0.22;;;0.20;;
19671;SDS011;9983;51.114;13.788;2023-03-14T17:26:29;0.73;;;0.22;;
19671;SDS011;9983;51.114;13.788;2023-03-14T17:31:29;0.30;;;0.30;;
19671;SDS011;9983;51.114;13.788;2023-03-14T17:36:30;0.20;;;0.20;;
19671;SDS011;9983;51.114;13.788;2023-03-14T17:41:31;0.57;;;0.35;;
19671;SDS011;9983;51.114;13.788;2023-03-14T17:46:31;1.27;;;0.50;;
19671;SDS011;9983;51.114;13.788;2023-03-14T17:51:32;0.90;;;0.55;;
19671;SDS011;9983;51.114;13.788;2023-03-14T17:56:32;1.13;;;0.60;;
19671;SDS011;9983;51.114;13.788;2023-03-14T18:01:32;5.43;;;1.10;;
19671;SDS011;9983;51.114;13.788;2023-03-14T18:06:32;2.10;;;1.00;;
19671;SDS011;9983;51.114;13.788;2023-03-14T18:11:33;5.13;;;1.48;;
19671;SDS011;9983;51.114;13.788;2023-03-14T18:16:34;3.95;;;1.30;;
19671;SDS011;9983;51.114;13.788;2023-03-14T18:21:34;4.97;;;1.30;;
19671;SDS011;9983;51.114;13.788;2023-03-14T18:26:35;2.60;;;1.13;;
19671;SDS011;9983;51.114;13.788;2023-03-14T18:31:35;2.63;;;1.00;;
19671;SDS011;9983;51.114;13.788;2023-03-14T18:36:36;2.00;;;1.13;;
19671;SDS011;9983;51.114;13.788;2023-03-14T18:41:37;4.38;;;1.38;;
19671;SDS011;9983;51.114;13.788;2023-03-14T18:46:39;3.83;;;1.27;;
19671;SDS011;9983;51.114;13.788;2023-03-14T18:51:39;1.15;;;1.00;;
19671;SDS011;9983;51.114;13.788;2023-03-14T18:56:41;2.35;;;1.20;;
19671;SDS011;9983;51.114;13.788;2023-03-14T19:01:42;1.60;;;1.05;;
19671;SDS011;9983;51.114;13.788;2023-03-14T19:06:42;3.20;;;1.30;;
19671;SDS011;9983;51.114;13.788;2023-03-14T19:11:42;2.72;;;1.58;;
19671;SDS011;9983;51.114;13.788;2023-03-14T19:16:43;5.43;;;1.48;;
19671;SDS011;9983;51.114;13.788;2023-03-14T19:21:43;4.28;;;1.70;;
19671;SDS011;9983;51.114;13.788;2023-03-14T19:26:43;3.67;;;2.53;;
19671;SDS011;9983;51.114;13.788;2023-03-14T19:31:44;1.90;;;1.20;;
19671;SDS011;9983;51.114;13.788;2023-03-14T19:36:44;2.45;;;1.25;;
19671;SDS011;9983;51.114;13.788;2023-03-14T19:41:44;2.17;;;1.40;;
19671;SDS011;9983;51.114;13.788;2023-03-14T19:46:45;3.33;;;1.35;;
19671;SDS011;9983;51.114;13.788;2023-03-14T19:51:45;5.85;;;1.88;;
19671;SDS011;9983;51.114;13.788;2023-03-14T19:56:45;2.95;;;1.55;;
19671;SDS011;9983;51.114;13.788;2023-03-14T20:01:46;5.18;;;2.42;;
19671;SDS011;9983;51.114;13.788;2023-03-14T20:06:47;1.90;;;0.98;;
19671;SDS011;9983;51.114;13.788;2023-03-14T20:11:48;9.85;;;1.77;;
19671;SDS011;9983;51.114;13.788;2023-03-14T20:16:48;7.32;;;2.00;;
19671;SDS011;9983;51.114;13.788;2023-03-14T20:21:48;9.75;;;2.17;;
19671;SDS011;9983;51.114;13.788;2023-03-14T20:26:50;7.07;;;1.80;;
19671;SDS011;9983;51.114;13.788;2023-03-14T20:31:50;10.15;;;1.90;;
19671;SDS011;9983;51.114;13.788;2023-03-14T20:36:50;3.97;;;1.77;;
19671;SDS011;9983;51.114;13.788;2023-03-14T20:41:53;6.20;;;1.88;;
19671;SDS011;9983;51.114;13.788;2023-03-14T20:46:53;12.60;;;2.58;;
19671;SDS011;9983;51.114;13.788;2023-03-14T20:51:54;10.40;;;1.73;;
19671;SDS011;9983;51.114;13.788;2023-03-14T20:56:54;6.80;;;1.65;;
19671;SDS011;9983;51.114;13.788;2023-03-14T21:01:54;6.93;;;2.03;;
19671;SDS011;9983;51.114;13.788;2023-03-14T21:06:56;5.38;;;1.50;;
19671;SDS011;9983;51.114;13.788;2023-03-14T21:11:56;7.38;;;2.03;;
19671;SDS011;9983;51.114;13.788;2023-03-14T21:16:57;5.03;;;1.67;;
19671;SDS011;9983;51.114;13.788;2023-03-14T21:21:59;5.53;;;1.83;;
19671;SDS011;9983;51.114;13.788;2023-03-14T21:27:01;6.03;;;1.67;;
19671;SDS011;9983;51.114;13.788;2023-03-14T21:32:02;6.95;;;1.65;;
19671;SDS011;9983;51.114;13.788;2023-03-14T21:37:02;6.65;;;1.77;;
19671;SDS011;9983;51.114;13.788;2023-03-14T21:42:03;7.88;;;1.85;;
19671;SDS011;9983;51.114;13.788;2023-03-14T21:47:04;8.82;;;2.10;;
19671;SDS011;9983;51.114;13.788;2023-03-14T21:52:06;2.78;;;1.60;;
19671;SDS011;9983;51.114;13.788;2023-03-14T21:57:08;9.20;;;1.65;;
19671;SDS011;9983;51.114;13.788;2023-03-14T22:02:13;6.35;;;1.50;;
19671;SDS011;9983;51.114;13.788;2023-03-14T22:07:15;9.10;;;1.98;;
19671;SDS011;9983;51.114;13.788;2023-03-14T22:12:16;5.90;;;1.48;;
19671;SDS011;9983;51.114;13.788;2023-03-14T22:17:18;6.18;;;1.30;;
19671;SDS011;9983;51.114;13.788;2023-03-14T22:22:19;5.13;;;1.55;;
19671;SDS011;9983;51.114;13.788;2023-03-14T22:27:19;6.93;;;1.38;;
19671;SDS011;9983;51.114;13.788;2023-03-14T22:32:19;8.02;;;1.58;;
19671;SDS011;9983;51.114;13.788;2023-03-14T22:37:20;6.82;;;1.50;;
19671;SDS011;9983;51.114;13.788;2023-03-14T22:42:21;10.77;;;1.90;;
19671;SDS011;9983;51.114;13.788;2023-03-14T22:47:22;6.05;;;1.40;;
19671;SDS011;9983;51.114;13.788;2023-03-14T22:52:22;7.00;;;1.70;;
19671;SDS011;9983;51.114;13.788;2023-03-14T22:57:22;5.22;;;1.58;;
19671;SDS011;9983;51.114;13.788;2023-03-14T23:02:23;5.72;;;1.50;;
19671;SDS011;9983;51.114;13.788;2023-03-14T23:07:23;8.38;;;1.73;;
19671;SDS011;9983;51.114;13.788;2023-03-14T23:12:23;5.75;;;1.50;;
19671;SDS011;9983;51.114;13.788;2023-03-14T23:17:24;3.83;;;1.55;;
19671;SDS011;9983;51.114;13.788;2023-03-14T23:22:24;5.30;;;2.17;;
19671;SDS011;9983;51.114;13.788;2023-03-14T23:27:24;5.68;;;1.75;;
19671;SDS011;9983;51.114;13.788;2023-03-14T23:32:25;8.18;;;1.98;;
19671;SDS011;9983;51.114;13.788;2023-03-14T23:37:25;6.68;;;1.95;;
19671;SDS011;9983;51.114;13.788;2023-03-14T23:42:25;9.02;;;1.67;;
19671;SDS011;9983;51.114;13.788;2023-03-14T23:47:26;6.82;;;2.00;;
19671;SDS011;9983;51.114;13.788;2023-03-14T23:52:27;7.53;;;1.75;;
19671;SDS011;9983;51.114;13.788;2023-03-14T23:57:27;3.85;;;1.60;;
